sensor_id;sensor_type;location;lat;lon;timestamp;pressure;altitude;pressure_sealevel;temperature;humidity
63500;BME280;49654;51.142;14.924;2023-02-03T00:01:47;99852.00;;;2.96;80.28
63500;BME280;49654;51.142;14.924;2023-02-03T00:04:14;99851.25;;;2.83;80.64
63500;BME280;49654;51.142;14.924;2023-02-03T00:06:41;99851.56;;;3.02;80.92
63500;BME280;49654;51.142;14.924;2023-02-03T00:09:09;99849.00;;;3.02;80.20
63500;BME280;49654;51.142;14.924;2023-02-03T00:11:36;99856.81;;;3.00;80.65
63500;BME280;49654;51.142;14.924;2023-02-03T00:14:03;99850.78;;;2.89;81.01
63500;BME280;49654;51.142;14.924;2023-02-03T00:16:34;99860.53;;;2.96;81.05
63500;BME280;49654;51.142;14.924;2023-02-03T00:19:01;99861.06;;;3.13;81.07
63500;BME280;49654;51.142;14.924;2023-02-03T00:21:28;99843.00;;;3.14;79.83
63500;BME280;49654;51.142;14.924;2023-02-03T00:23:55;99845.50;;;3.03;80.53
63500;BME280;49654;51.142;14.924;2023-02-03T00:26:22;99842.66;;;3.19;80.33
63500;BME280;49654;51.142;14.924;2023-02-03T00:28:50;99797.75;;;2.89;80.30
63500;BME280;49654;51.142;14.924;2023-02-03T00:31:19;99838.00;;;3.24;80.39
63500;BME280;49654;51.142;14.924;2023-02-03T00:33:52;99828.28;;;3.16;80.21
63500;BME280;49654;51.142;14.924;2023-02-03T00:36:19;99844.69;;;3.03;81.21
63500;BME280;49654;51.142;14.924;2023-02-03T00:38:46;99837.31;;;2.98;81.50
63500;BME280;49654;51.142;14.924;2023-02-03T00:41:14;99822.03;;;2.96;81.73
63500;BME280;49654;51.142;14.924;2023-02-03T00:43:41;99829.06;;;2.82;82.15
63500;BME280;49654;51.142;14.924;2023-02-03T00:46:08;99813.00;;;2.91;82.41
63500;BME280;49654;51.142;14.924;2023-02-03T00:48:35;99801.38;;;2.98;82.24
63500;BME280;49654;51.142;14.924;2023-02-03T00:51:04;99811.56;;;3.35;81.25
63500;BME280;49654;51.142;14.924;2023-02-03T00:53:31;99811.31;;;3.38;81.25
63500;BME280;49654;51.142;14.924;2023-02-03T00:55:58;99819.03;;;3.38;80.83
63500;BME280;49654;51.142;14.924;2023-02-03T00:58:25;99805.97;;;3.41;80.59
63500;BME280;49654;51.142;14.924;2023-02-03T01:00:53;99751.63;;;3.12;79.85
63500;BME280;49654;51.142;14.924;2023-02-03T01:03:20;99790.34;;;3.44;80.27
63500;BME280;49654;51.142;14.924;2023-02-03T01:05:47;99786.72;;;3.46;80.51
63500;BME280;49654;51.142;14.924;2023-02-03T01:08:15;99788.00;;;3.41;80.03
63500;BME280;49654;51.142;14.924;2023-02-03T01:10:42;99768.19;;;3.43;80.38
63500;BME280;49654;51.142;14.924;2023-02-03T01:13:09;99768.56;;;3.61;79.83
63500;BME280;49654;51.142;14.924;2023-02-03T01:15:37;99757.13;;;3.65;79.15
63500;BME280;49654;51.142;14.924;2023-02-03T01:18:03;99753.16;;;3.61;78.95
63500;BME280;49654;51.142;14.924;2023-02-03T01:20:30;99717.28;;;3.37;78.98
63500;BME280;49654;51.142;14.924;2023-02-03T01:22:57;99744.28;;;3.65;79.07
63500;BME280;49654;51.142;14.924;2023-02-03T01:25:26;99733.63;;;3.58;79.44
63500;BME280;49654;51.142;14.924;2023-02-03T01:27:52;99734.56;;;3.57;79.13
63500;BME280;49654;51.142;14.924;2023-02-03T01:30:19;99713.66;;;3.28;78.72
63500;BME280;49654;51.142;14.924;2023-02-03T01:32:46;99737.03;;;3.47;79.54
63500;BME280;49654;51.142;14.924;2023-02-03T01:35:14;99714.25;;;3.54;79.34
63500;BME280;49654;51.142;14.924;2023-02-03T01:37:40;99704.00;;;3.43;79.73
63500;BME280;49654;51.142;14.924;2023-02-03T01:40:09;99691.03;;;3.44;79.46
63500;BME280;49654;51.142;14.924;2023-02-03T01:42:37;99697.56;;;3.48;79.79
63500;BME280;49654;51.142;14.924;2023-02-03T01:45:05;99685.09;;;3.44;80.00
63500;BME280;49654;51.142;14.924;2023-02-03T01:47:34;99670.16;;;3.60;79.66
63500;BME280;49654;51.142;14.924;2023-02-03T01:50:08;99664.75;;;3.63;79.67
63500;BME280;49654;51.142;14.924;2023-02-03T01:52:38;99611.66;;;3.53;79.11
63500;BME280;49654;51.142;14.924;2023-02-03T01:55:09;99642.22;;;3.78;78.63
63500;BME280;49654;51.142;14.924;2023-02-03T01:57:41;99656.47;;;3.60;79.05
63500;BME280;49654;51.142;14.924;2023-02-03T02:00:10;99658.00;;;3.73;78.77
63500;BME280;49654;51.142;14.924;2023-02-03T02:02:38;99665.00;;;3.49;78.50
63500;BME280;49654;51.142;14.924;2023-02-03T02:05:08;99664.66;;;3.54;79.00
63500;BME280;49654;51.142;14.924;2023-02-03T02:07:38;99669.31;;;3.60;78.86
63500;BME280;49654;51.142;14.924;2023-02-03T02:10:06;99661.25;;;3.42;78.99
63500;BME280;49654;51.142;14.924;2023-02-03T02:12:33;99663.94;;;3.40;79.52
63500;BME280;49654;51.142;14.924;2023-02-03T02:15:02;99662.31;;;3.39;79.46
63500;BME280;49654;51.142;14.924;2023-02-03T02:17:42;99623.22;;;3.36;79.23
63500;BME280;49654;51.142;14.924;2023-02-03T02:20:32;99651.00;;;3.64;78.70
63500;BME280;49654;51.142;14.924;2023-02-03T02:23:12;99633.63;;;3.34;78.98
63500;BME280;49654;51.142;14.924;2023-02-03T02:26:00;99552.28;;;2.90;79.44
63500;BME280;49654;51.142;14.924;2023-02-03T02:29:08;99622.88;;;3.40;79.58
63500;BME280;49654;51.142;14.924;2023-02-03T02:31:56;99529.31;;;2.88;79.10
63500;BME280;49654;51.142;14.924;2023-02-03T02:34:36;99611.06;;;3.49;78.93
63500;BME280;49654;51.142;14.924;2023-02-03T02:37:08;99557.06;;;3.28;78.76
63500;BME280;49654;51.142;14.924;2023-02-03T02:39:44;99545.06;;;3.17;78.95
63500;BME280;49654;51.142;14.924;2023-02-03T02:42:14;99606.53;;;3.53;79.06
63500;BME280;49654;51.142;14.924;2023-02-03T02:44:52;99594.03;;;3.48;79.74
63500;BME280;49654;51.142;14.924;2023-02-03T02:47:23;99584.81;;;3.45;79.89
63500;BME280;49654;51.142;14.924;2023-02-03T02:49:53;99590.66;;;3.36;80.42
63500;BME280;49654;51.142;14.924;2023-02-03T02:52:25;99560.00;;;3.23;80.83
63500;BME280;49654;51.142;14.924;2023-02-03T02:55:00;99576.56;;;3.31;81.14
63500;BME280;49654;51.142;14.924;2023-02-03T02:57:29;99553.69;;;3.05;81.65
63500;BME280;49654;51.142;14.924;2023-02-03T02:59:57;99572.13;;;3.10;82.03
63500;BME280;49654;51.142;14.924;2023-02-03T03:02:31;99570.03;;;3.04;82.75
63500;BME280;49654;51.142;14.924;2023-02-03T03:05:00;99565.13;;;3.23;82.82
63500;BME280;49654;51.142;14.924;2023-02-03T03:07:28;99568.75;;;3.10;83.03
63500;BME280;49654;51.142;14.924;2023-02-03T03:10:00;99552.53;;;3.09;82.60
63500;BME280;49654;51.142;14.924;2023-02-03T03:12:31;99544.47;;;3.25;82.53
63500;BME280;49654;51.142;14.924;2023-02-03T03:15:03;99547.88;;;3.14;82.44
63500;BME280;49654;51.142;14.924;2023-02-03T03:17:41;99551.13;;;3.05;82.53
63500;BME280;49654;51.142;14.924;2023-02-03T03:20:14;99535.84;;;3.04;82.78
63500;BME280;49654;51.142;14.924;2023-02-03T03:22:47;99536.19;;;3.10;82.66
63500;BME280;49654;51.142;14.924;2023-02-03T03:25:18;99492.25;;;2.70;82.78
63500;BME280;49654;51.142;14.924;2023-02-03T03:27:48;99475.81;;;2.84;82.63
63500;BME280;49654;51.142;14.924;2023-02-03T03:30:19;99420.22;;;2.28;82.84
63500;BME280;49654;51.142;14.924;2023-02-03T03:32:49;99510.78;;;2.96;82.94
63500;BME280;49654;51.142;14.924;2023-02-03T03:35:17;99512.50;;;2.95;83.12
63500;BME280;49654;51.142;14.924;2023-02-03T03:37:49;99435.47;;;2.52;82.46
63500;BME280;49654;51.142;14.924;2023-02-03T03:40:22;99484.66;;;2.91;83.05
63500;BME280;49654;51.142;14.924;2023-02-03T03:42:53;99492.25;;;2.92;82.44
63500;BME280;49654;51.142;14.924;2023-02-03T03:45:25;99489.59;;;2.83;82.77
63500;BME280;49654;51.142;14.924;2023-02-03T03:47:58;99479.75;;;2.65;83.28
63500;BME280;49654;51.142;14.924;2023-02-03T03:50:30;99482.69;;;2.72;82.99
63500;BME280;49654;51.142;14.924;2023-02-03T03:53:00;99478.50;;;2.71;83.60
63500;BME280;49654;51.142;14.924;2023-02-03T03:55:30;99474.63;;;2.76;83.57
63500;BME280;49654;51.142;14.924;2023-02-03T03:58:01;99390.41;;;2.27;83.74
63500;BME280;49654;51.142;14.924;2023-02-03T04:00:32;99453.56;;;2.62;83.86
63500;BME280;49654;51.142;14.924;2023-02-03T04:03:05;99457.16;;;2.37;84.73
63500;BME280;49654;51.142;14.924;2023-02-03T04:05:33;99427.88;;;2.17;86.15
63500;BME280;49654;51.142;14.924;2023-02-03T04:08:00;99442.00;;;2.34;85.96
63500;BME280;49654;51.142;14.924;2023-02-03T04:10:30;99407.59;;;2.14;86.11
63500;BME280;49654;51.142;14.924;2023-02-03T04:12:58;99440.72;;;2.39;86.19
63500;BME280;49654;51.142;14.924;2023-02-03T04:15:25;99425.81;;;2.33;86.12
63500;BME280;49654;51.142;14.924;2023-02-03T04:17:52;99385.25;;;2.16;86.16
63500;BME280;49654;51.142;14.924;2023-02-03T04:20:23;99399.81;;;2.26;86.71
63500;BME280;49654;51.142;14.924;2023-02-03T04:22:50;99393.44;;;2.32;86.64
63500;BME280;49654;51.142;14.924;2023-02-03T04:25:17;99379.09;;;2.30;86.75
63500;BME280;49654;51.142;14.924;2023-02-03T04:27:44;99366.38;;;2.39;86.89
63500;BME280;49654;51.142;14.924;2023-02-03T04:30:11;99373.97;;;2.41;87.28
63500;BME280;49654;51.142;14.924;2023-02-03T04:32:39;99288.25;;;2.00;87.74
63500;BME280;49654;51.142;14.924;2023-02-03T04:35:06;99340.06;;;2.37;87.95
63500;BME280;49654;51.142;14.924;2023-02-03T04:37:35;99330.16;;;2.44;87.82
63500;BME280;49654;51.142;14.924;2023-02-03T04:40:02;99304.44;;;2.23;88.33
63500;BME280;49654;51.142;14.924;2023-02-03T04:42:29;99311.53;;;2.42;88.31
63500;BME280;49654;51.142;14.924;2023-02-03T04:44:56;99285.88;;;2.42;88.29
63500;BME280;49654;51.142;14.924;2023-02-03T04:47:23;99295.19;;;2.54;88.53
63500;BME280;49654;51.142;14.924;2023-02-03T04:49:49;99283.53;;;2.61;88.13
63500;BME280;49654;51.142;14.924;2023-02-03T04:52:16;99300.97;;;2.67;88.15
63500;BME280;49654;51.142;14.924;2023-02-03T04:54:45;99297.97;;;2.62;87.99
63500;BME280;49654;51.142;14.924;2023-02-03T04:57:11;99292.34;;;2.68;88.08
63500;BME280;49654;51.142;14.924;2023-02-03T04:59:38;99287.00;;;2.60;88.26
63500;BME280;49654;51.142;14.924;2023-02-03T05:02:05;99291.75;;;2.76;88.68
63500;BME280;49654;51.142;14.924;2023-02-03T05:04:33;99249.56;;;2.37;88.48
63500;BME280;49654;51.142;14.924;2023-02-03T05:07:00;99290.56;;;2.80;89.16
63500;BME280;49654;51.142;14.924;2023-02-03T05:09:27;99304.78;;;2.84;89.07
63500;BME280;49654;51.142;14.924;2023-02-03T05:11:55;99303.03;;;2.85;88.57
63500;BME280;49654;51.142;14.924;2023-02-03T05:14:22;99304.03;;;2.61;89.17
63500;BME280;49654;51.142;14.924;2023-02-03T05:16:49;99296.59;;;2.58;90.21
63500;BME280;49654;51.142;14.924;2023-02-03T05:19:16;99294.31;;;2.76;90.72
63500;BME280;49654;51.142;14.924;2023-02-03T05:21:42;99250.34;;;2.81;89.39
63500;BME280;49654;51.142;14.924;2023-02-03T05:24:09;99263.00;;;2.93;89.61
63500;BME280;49654;51.142;14.924;2023-02-03T05:26:36;99287.06;;;3.13;89.44
63500;BME280;49654;51.142;14.924;2023-02-03T05:29:05;99194.72;;;2.60;89.51
63500;BME280;49654;51.142;14.924;2023-02-03T05:31:32;99270.41;;;3.29;89.54
63500;BME280;49654;51.142;14.924;2023-02-03T05:33:59;99213.41;;;3.04;89.82
63500;BME280;49654;51.142;14.924;2023-02-03T05:36:26;99266.41;;;3.36;89.64
63500;BME280;49654;51.142;14.924;2023-02-03T05:38:53;99262.66;;;3.40;89.03
63500;BME280;49654;51.142;14.924;2023-02-03T05:41:20;99197.06;;;3.05;89.69
63500;BME280;49654;51.142;14.924;2023-02-03T05:44:05;99235.09;;;3.42;89.83
63500;BME280;49654;51.142;14.924;2023-02-03T05:46:32;99240.34;;;3.61;89.95
63500;BME280;49654;51.142;14.924;2023-02-03T05:48:59;99226.06;;;3.68;90.12
63500;BME280;49654;51.142;14.924;2023-02-03T05:51:26;99231.50;;;3.54;91.40
63500;BME280;49654;51.142;14.924;2023-02-03T05:53:53;99235.03;;;3.93;91.08
63500;BME280;49654;51.142;14.924;2023-02-03T05:56:20;99230.69;;;4.24;90.49
63500;BME280;49654;51.142;14.924;2023-02-03T05:58:47;99233.31;;;4.63;90.57
63500;BME280;49654;51.142;14.924;2023-02-03T06:01:17;99227.63;;;4.89;90.45
63500;BME280;49654;51.142;14.924;2023-02-03T06:03:45;99221.81;;;4.67;91.29
63500;BME280;49654;51.142;14.924;2023-02-03T06:06:12;99232.50;;;4.72;91.76
63500;BME280;49654;51.142;14.924;2023-02-03T06:08:39;99230.59;;;4.74;91.59
63500;BME280;49654;51.142;14.924;2023-02-03T06:11:06;99240.88;;;4.74;91.61
63500;BME280;49654;51.142;14.924;2023-02-03T06:13:33;99248.22;;;4.89;92.01
63500;BME280;49654;51.142;14.924;2023-02-03T06:15:59;99227.88;;;4.95;92.44
63500;BME280;49654;51.142;14.924;2023-02-03T06:18:28;99200.66;;;4.93;91.87
63500;BME280;49654;51.142;14.924;2023-02-03T06:20:55;99233.94;;;5.04;91.97
63500;BME280;49654;51.142;14.924;2023-02-03T06:23:22;99217.81;;;5.12;91.67
63500;BME280;49654;51.142;14.924;2023-02-03T06:25:50;99224.84;;;5.29;91.77
63500;BME280;49654;51.142;14.924;2023-02-03T06:28:17;99220.88;;;5.44;91.00
63500;BME280;49654;51.142;14.924;2023-02-03T06:30:44;99219.94;;;5.45;91.05
63500;BME280;49654;51.142;14.924;2023-02-03T06:33:14;99220.88;;;5.44;90.47
63500;BME280;49654;51.142;14.924;2023-02-03T06:35:43;99216.34;;;5.56;90.54
63500;BME280;49654;51.142;14.924;2023-02-03T06:38:10;99198.41;;;5.74;90.70
63500;BME280;49654;51.142;14.924;2023-02-03T06:40:37;99197.97;;;5.78;90.16
63500;BME280;49654;51.142;14.924;2023-02-03T06:43:04;99176.34;;;5.89;89.76
63500;BME280;49654;51.142;14.924;2023-02-03T06:45:31;99161.25;;;6.04;89.15
63500;BME280;49654;51.142;14.924;2023-02-03T06:47:59;99166.88;;;6.35;88.39
63500;BME280;49654;51.142;14.924;2023-02-03T06:50:26;99146.75;;;6.39;87.62
63500;BME280;49654;51.142;14.924;2023-02-03T06:52:54;99167.50;;;6.55;86.61
63500;BME280;49654;51.142;14.924;2023-02-03T06:55:21;99168.63;;;6.52;86.81
63500;BME280;49654;51.142;14.924;2023-02-03T06:57:48;99149.97;;;6.41;86.83
63500;BME280;49654;51.142;14.924;2023-02-03T07:00:17;99140.69;;;6.48;86.79
63500;BME280;49654;51.142;14.924;2023-02-03T07:02:44;99141.94;;;6.44;86.81
63500;BME280;49654;51.142;14.924;2023-02-03T07:05:11;99129.63;;;6.56;86.49
63500;BME280;49654;51.142;14.924;2023-02-03T07:07:38;99118.53;;;6.63;85.66
63500;BME280;49654;51.142;14.924;2023-02-03T07:10:07;99099.72;;;6.45;85.74
63500;BME280;49654;51.142;14.924;2023-02-03T07:12:34;99122.66;;;6.74;84.71
63500;BME280;49654;51.142;14.924;2023-02-03T07:15:02;99116.81;;;6.64;85.32
63500;BME280;49654;51.142;14.924;2023-02-03T07:17:29;99115.03;;;6.64;85.83
63500;BME280;49654;51.142;14.924;2023-02-03T07:19:56;99105.81;;;6.62;86.11
63500;BME280;49654;51.142;14.924;2023-02-03T07:22:23;99106.63;;;6.62;86.32
63500;BME280;49654;51.142;14.924;2023-02-03T07:24:50;99106.53;;;6.54;86.73
63500;BME280;49654;51.142;14.924;2023-02-03T07:27:18;99090.47;;;6.60;87.07
63500;BME280;49654;51.142;14.924;2023-02-03T07:29:45;99053.09;;;6.38;86.77
63500;BME280;49654;51.142;14.924;2023-02-03T07:32:12;99088.84;;;6.59;87.24
63500;BME280;49654;51.142;14.924;2023-02-03T07:34:39;99089.56;;;6.69;86.72
63500;BME280;49654;51.142;14.924;2023-02-03T07:37:06;99069.63;;;6.53;86.94
63500;BME280;49654;51.142;14.924;2023-02-03T07:39:33;99091.41;;;6.59;87.26
63500;BME280;49654;51.142;14.924;2023-02-03T07:42:00;99086.38;;;6.75;86.44
63500;BME280;49654;51.142;14.924;2023-02-03T07:44:28;99073.00;;;6.80;86.39
63500;BME280;49654;51.142;14.924;2023-02-03T07:46:55;99068.31;;;6.75;85.92
63500;BME280;49654;51.142;14.924;2023-02-03T07:49:22;99057.47;;;6.72;86.01
63500;BME280;49654;51.142;14.924;2023-02-03T07:51:49;99084.47;;;6.77;85.52
63500;BME280;49654;51.142;14.924;2023-02-03T07:54:16;99085.56;;;6.75;85.54
63500;BME280;49654;51.142;14.924;2023-02-03T07:56:43;99063.16;;;6.75;85.57
63500;BME280;49654;51.142;14.924;2023-02-03T07:59:10;99053.50;;;6.77;85.95
63500;BME280;49654;51.142;14.924;2023-02-03T08:01:38;99048.97;;;6.80;86.08
63500;BME280;49654;51.142;14.924;2023-02-03T08:04:05;99052.81;;;6.75;86.04
63500;BME280;49654;51.142;14.924;2023-02-03T08:06:33;99030.34;;;6.68;86.06
63500;BME280;49654;51.142;14.924;2023-02-03T08:09:00;99036.06;;;6.80;85.61
63500;BME280;49654;51.142;14.924;2023-02-03T08:11:27;99027.38;;;6.81;85.25
63500;BME280;49654;51.142;14.924;2023-02-03T08:13:54;98930.63;;;6.24;85.08
63500;BME280;49654;51.142;14.924;2023-02-03T08:16:21;99024.81;;;6.89;85.00
63500;BME280;49654;51.142;14.924;2023-02-03T08:18:49;99039.38;;;6.98;84.81
63500;BME280;49654;51.142;14.924;2023-02-03T08:21:16;99032.31;;;7.00;84.70
63500;BME280;49654;51.142;14.924;2023-02-03T08:23:43;99031.00;;;6.96;85.28
63500;BME280;49654;51.142;14.924;2023-02-03T08:26:10;99027.09;;;6.92;86.07
63500;BME280;49654;51.142;14.924;2023-02-03T08:28:37;99025.44;;;6.83;86.61
63500;BME280;49654;51.142;14.924;2023-02-03T08:31:08;99022.31;;;6.71;86.73
63500;BME280;49654;51.142;14.924;2023-02-03T08:33:35;99004.63;;;6.50;86.95
63500;BME280;49654;51.142;14.924;2023-02-03T08:36:04;99029.25;;;6.70;87.24
63500;BME280;49654;51.142;14.924;2023-02-03T08:38:32;99032.50;;;6.72;87.23
63500;BME280;49654;51.142;14.924;2023-02-03T08:40:59;99031.19;;;6.68;87.00
63500;BME280;49654;51.142;14.924;2023-02-03T08:43:26;99012.56;;;6.57;86.88
63500;BME280;49654;51.142;14.924;2023-02-03T08:45:53;99016.34;;;6.70;86.80
63500;BME280;49654;51.142;14.924;2023-02-03T08:48:20;99006.69;;;6.46;87.30
63500;BME280;49654;51.142;14.924;2023-02-03T08:50:47;99022.63;;;6.68;87.33
63500;BME280;49654;51.142;14.924;2023-02-03T08:53:19;99030.34;;;6.60;87.64
63500;BME280;49654;51.142;14.924;2023-02-03T08:55:45;99018.19;;;6.52;88.06
63500;BME280;49654;51.142;14.924;2023-02-03T08:58:12;98996.34;;;6.38;88.11
63500;BME280;49654;51.142;14.924;2023-02-03T09:00:40;98996.53;;;6.45;88.49
63500;BME280;49654;51.142;14.924;2023-02-03T09:03:07;99006.56;;;6.48;88.43
63500;BME280;49654;51.142;14.924;2023-02-03T09:05:34;98984.59;;;6.44;88.65
63500;BME280;49654;51.142;14.924;2023-02-03T09:08:01;98985.13;;;6.47;88.70
63500;BME280;49654;51.142;14.924;2023-02-03T09:10:29;98980.25;;;6.44;89.04
63500;BME280;49654;51.142;14.924;2023-02-03T09:12:56;98979.63;;;6.50;88.49
63500;BME280;49654;51.142;14.924;2023-02-03T09:15:23;98969.00;;;6.53;88.66
63500;BME280;49654;51.142;14.924;2023-02-03T09:17:50;98960.63;;;6.51;88.64
63500;BME280;49654;51.142;14.924;2023-02-03T09:20:18;98967.06;;;6.47;88.61
63500;BME280;49654;51.142;14.924;2023-02-03T09:22:45;98966.34;;;6.37;88.66
63500;BME280;49654;51.142;14.924;2023-02-03T09:25:12;98882.63;;;5.97;88.27
63500;BME280;49654;51.142;14.924;2023-02-03T09:27:42;98950.41;;;6.42;88.78
63500;BME280;49654;51.142;14.924;2023-02-03T09:30:10;98962.84;;;6.46;89.49
63500;BME280;49654;51.142;14.924;2023-02-03T09:32:38;98946.25;;;6.49;89.41
63500;BME280;49654;51.142;14.924;2023-02-03T09:35:05;98942.53;;;6.43;90.16
63500;BME280;49654;51.142;14.924;2023-02-03T09:37:32;98931.34;;;6.35;89.79
63500;BME280;49654;51.142;14.924;2023-02-03T09:39:59;98914.16;;;6.43;90.20
63500;BME280;49654;51.142;14.924;2023-02-03T09:42:40;98902.06;;;6.44;90.25
63500;BME280;49654;51.142;14.924;2023-02-03T09:45:23;98905.31;;;6.54;90.14
63500;BME280;49654;51.142;14.924;2023-02-03T09:47:51;98900.84;;;6.56;90.18
63500;BME280;49654;51.142;14.924;2023-02-03T09:50:21;98895.50;;;6.58;90.13
63500;BME280;49654;51.142;14.924;2023-02-03T09:52:50;98893.72;;;6.58;90.08
63500;BME280;49654;51.142;14.924;2023-02-03T09:55:25;98887.25;;;6.54;90.18
63500;BME280;49654;51.142;14.924;2023-02-03T09:57:59;98886.00;;;6.58;89.75
63500;BME280;49654;51.142;14.924;2023-02-03T10:00:32;98877.75;;;6.55;90.30
63500;BME280;49654;51.142;14.924;2023-02-03T10:03:06;98883.09;;;6.61;90.03
63500;BME280;49654;51.142;14.924;2023-02-03T10:05:46;98865.41;;;6.74;89.96
63500;BME280;49654;51.142;14.924;2023-02-03T10:08:22;98855.88;;;6.67;90.03
63500;BME280;49654;51.142;14.924;2023-02-03T10:10:56;98850.03;;;6.57;90.68
63500;BME280;49654;51.142;14.924;2023-02-03T10:13:40;98846.53;;;6.74;90.64
63500;BME280;49654;51.142;14.924;2023-02-03T10:16:20;98830.88;;;6.67;90.67
63500;BME280;49654;51.142;14.924;2023-02-03T10:18:53;98816.84;;;6.70;90.18
63500;BME280;49654;51.142;14.924;2023-02-03T10:21:31;98807.50;;;6.69;89.84
63500;BME280;49654;51.142;14.924;2023-02-03T10:24:00;98807.19;;;6.64;90.07
63500;BME280;49654;51.142;14.924;2023-02-03T10:26:28;98800.56;;;6.69;89.88
63500;BME280;49654;51.142;14.924;2023-02-03T10:28:56;98769.06;;;6.49;90.19
63500;BME280;49654;51.142;14.924;2023-02-03T10:31:26;98818.63;;;6.69;89.95
63500;BME280;49654;51.142;14.924;2023-02-03T10:33:58;98740.56;;;6.51;89.78
63500;BME280;49654;51.142;14.924;2023-02-03T10:36:32;98779.44;;;6.74;89.86
63500;BME280;49654;51.142;14.924;2023-02-03T10:39:11;98767.84;;;6.78;89.81
63500;BME280;49654;51.142;14.924;2023-02-03T10:41:41;98754.13;;;6.69;89.49
63500;BME280;49654;51.142;14.924;2023-02-03T10:44:11;98762.19;;;6.74;89.72
63500;BME280;49654;51.142;14.924;2023-02-03T10:46:41;98770.25;;;6.80;89.93
63500;BME280;49654;51.142;14.924;2023-02-03T10:49:11;98756.38;;;6.81;89.56
63500;BME280;49654;51.142;14.924;2023-02-03T10:51:40;98744.44;;;6.88;89.22
63500;BME280;49654;51.142;14.924;2023-02-03T10:54:26;98710.91;;;6.71;89.00
63500;BME280;49654;51.142;14.924;2023-02-03T10:56:55;98718.00;;;6.77;89.05
63500;BME280;49654;51.142;14.924;2023-02-03T10:59:29;98724.13;;;6.93;89.56
63500;BME280;49654;51.142;14.924;2023-02-03T11:01:58;98727.84;;;6.98;89.39
63500;BME280;49654;51.142;14.924;2023-02-03T11:04:27;98706.53;;;6.96;89.06
63500;BME280;49654;51.142;14.924;2023-02-03T11:06:55;98695.25;;;6.89;89.10
63500;BME280;49654;51.142;14.924;2023-02-03T11:09:30;98619.16;;;6.44;88.77
63500;BME280;49654;51.142;14.924;2023-02-03T11:12:04;98687.19;;;7.00;88.95
63500;BME280;49654;51.142;14.924;2023-02-03T11:14:36;98689.94;;;6.99;89.76
63500;BME280;49654;51.142;14.924;2023-02-03T11:17:11;98672.34;;;7.02;89.41
63500;BME280;49654;51.142;14.924;2023-02-03T11:19:43;98662.16;;;7.01;89.96
63500;BME280;49654;51.142;14.924;2023-02-03T11:22:11;98661.66;;;7.06;89.37
63500;BME280;49654;51.142;14.924;2023-02-03T11:24:39;98659.91;;;7.06;89.55
63500;BME280;49654;51.142;14.924;2023-02-03T11:27:10;98667.31;;;7.09;89.55
63500;BME280;49654;51.142;14.924;2023-02-03T11:29:41;98640.72;;;7.00;89.92
63500;BME280;49654;51.142;14.924;2023-02-03T11:32:17;98621.53;;;6.95;90.39
63500;BME280;49654;51.142;14.924;2023-02-03T11:34:51;98619.56;;;7.05;90.78
63500;BME280;49654;51.142;14.924;2023-02-03T11:37:26;98623.22;;;7.19;90.86
63500;BME280;49654;51.142;14.924;2023-02-03T11:39:55;98625.66;;;7.20;90.56
63500;BME280;49654;51.142;14.924;2023-02-03T11:42:23;98627.91;;;7.23;90.15
63500;BME280;49654;51.142;14.924;2023-02-03T11:44:52;98605.81;;;7.21;90.44
63500;BME280;49654;51.142;14.924;2023-02-03T11:47:44;98557.50;;;6.90;90.43
63500;BME280;49654;51.142;14.924;2023-02-03T11:50:21;98572.56;;;7.18;90.51
63500;BME280;49654;51.142;14.924;2023-02-03T11:53:02;98580.09;;;7.27;89.49
63500;BME280;49654;51.142;14.924;2023-02-03T11:55:41;98528.41;;;7.05;89.57
63500;BME280;49654;51.142;14.924;2023-02-03T11:58:31;98581.75;;;7.28;89.16
63500;BME280;49654;51.142;14.924;2023-02-03T12:01:08;98575.28;;;7.33;88.51
63500;BME280;49654;51.142;14.924;2023-02-03T12:03:52;98587.84;;;7.36;87.87
63500;BME280;49654;51.142;14.924;2023-02-03T12:06:34;98562.75;;;7.44;87.25
63500;BME280;49654;51.142;14.924;2023-02-03T12:09:15;98560.97;;;7.45;86.46
63500;BME280;49654;51.142;14.924;2023-02-03T12:12:03;98564.75;;;7.65;85.94
63500;BME280;49654;51.142;14.924;2023-02-03T12:14:44;98573.31;;;7.66;85.45
63500;BME280;49654;51.142;14.924;2023-02-03T12:17:36;98587.03;;;7.66;84.71
63500;BME280;49654;51.142;14.924;2023-02-03T12:20:21;98567.63;;;7.70;84.60
63500;BME280;49654;51.142;14.924;2023-02-03T12:22:56;98558.97;;;7.63;85.15
63500;BME280;49654;51.142;14.924;2023-02-03T12:25:36;98588.19;;;7.64;85.96
63500;BME280;49654;51.142;14.924;2023-02-03T12:28:15;98584.09;;;7.46;86.91
63500;BME280;49654;51.142;14.924;2023-02-03T12:30:52;98576.78;;;7.58;87.35
63500;BME280;49654;51.142;14.924;2023-02-03T12:33:24;98568.13;;;7.43;88.40
63500;BME280;49654;51.142;14.924;2023-02-03T12:35:56;98533.25;;;7.39;89.55
63500;BME280;49654;51.142;14.924;2023-02-03T12:38:30;98553.75;;;7.40;90.25
63500;BME280;49654;51.142;14.924;2023-02-03T12:41:06;98529.06;;;7.38;90.76
63500;BME280;49654;51.142;14.924;2023-02-03T12:43:38;98523.34;;;7.50;90.44
63500;BME280;49654;51.142;14.924;2023-02-03T12:46:11;98513.81;;;7.51;89.50
63500;BME280;49654;51.142;14.924;2023-02-03T12:48:45;98531.72;;;7.52;89.09
63500;BME280;49654;51.142;14.924;2023-02-03T12:51:23;98522.50;;;7.58;89.21
63500;BME280;49654;51.142;14.924;2023-02-03T12:53:57;98486.53;;;7.48;89.65
63500;BME280;49654;51.142;14.924;2023-02-03T12:56:30;98470.56;;;7.45;90.46
63500;BME280;49654;51.142;14.924;2023-02-03T12:59:03;98534.09;;;7.62;89.96
63500;BME280;49654;51.142;14.924;2023-02-03T13:01:34;98544.28;;;7.64;90.16
63500;BME280;49654;51.142;14.924;2023-02-03T13:04:08;98559.78;;;7.64;90.47
63500;BME280;49654;51.142;14.924;2023-02-03T13:06:42;98502.88;;;6.62;91.89
63500;BME280;49654;51.142;14.924;2023-02-03T13:09:22;98621.41;;;6.56;89.49
63500;BME280;49654;51.142;14.924;2023-02-03T13:11:56;98682.69;;;5.87;88.05
63500;BME280;49654;51.142;14.924;2023-02-03T13:14:31;98690.44;;;5.52;87.76
63500;BME280;49654;51.142;14.924;2023-02-03T13:17:05;98687.53;;;5.30;87.59